sensor_id;sensor_type;location;lat;lon;timestamp;P1;durP1;ratioP1;P2;durP2;ratioP2
43457;SDS011;29046;54.184;18.680;2023-01-04T11:19:55;24.67;;;13.18;;
43457;SDS011;29046;54.184;18.680;2023-01-04T11:22:51;23.73;;;13.85;;
43457;SDS011;29046;54.184;18.680;2023-01-04T11:25:59;34.33;;;15.35;;
43457;SDS011;29046;54.184;18.680;2023-01-04T11:28:56;33.90;;;16.05;;
43457;SDS011;29046;54.184;18.680;2023-01-04T11:31:45;31.40;;;14.68;;
43457;SDS011;29046;54.184;18.680;2023-01-04T11:37:30;33.80;;;16.08;;
43457;SDS011;29046;54.184;18.680;2023-01-04T11:40:22;26.73;;;13.13;;
43457;SDS011;29046;54.184;18.680;2023-01-04T11:43:09;29.23;;;13.38;;
43457;SDS011;29046;54.184;18.680;2023-01-04T11:46:06;34.13;;;15.30;;
43457;SDS011;29046;54.184;18.680;2023-01-04T11:49:00;31.33;;;14.93;;
43457;SDS011;29046;54.184;18.680;2023-01-04T11:51:35;31.73;;;14.40;;
43457;SDS011;29046;54.184;18.680;2023-01-04T11:54:30;28.27;;;14.30;;
43457;SDS011;29046;54.184;18.680;2023-01-04T11:57:24;26.30;;;14.52;;
43457;SDS011;29046;54.184;18.680;2023-01-04T12:06:17;27.95;;;12.98;;
43457;SDS011;29046;54.184;18.680;2023-01-04T12:08:52;23.23;;;12.77;;
43457;SDS011;29046;54.184;18.680;2023-01-04T12:11:47;38.00;;;14.80;;
43457;SDS011;29046;54.184;18.680;2023-01-04T12:14:24;32.30;;;14.25;;
43457;SDS011;29046;54.184;18.680;2023-01-04T12:17:24;24.85;;;12.52;;
43457;SDS011;29046;54.184;18.680;2023-01-04T12:20:02;29.90;;;16.60;;
43457;SDS011;29046;54.184;18.680;2023-01-04T12:22:51;26.10;;;14.65;;
43457;SDS011;29046;54.184;18.680;2023-01-04T12:28:33;40.05;;;14.80;;
43457;SDS011;29046;54.184;18.680;2023-01-04T12:37:07;33.97;;;15.90;;
43457;SDS011;29046;54.184;18.680;2023-01-04T12:39:47;34.55;;;15.73;;
43457;SDS011;29046;54.184;18.680;2023-01-04T12:42:28;28.15;;;14.95;;
43457;SDS011;29046;54.184;18.680;2023-01-04T12:45:15;19.15;;;10.85;;
43457;SDS011;29046;54.184;18.680;2023-01-04T12:47:52;25.85;;;14.45;;
43457;SDS011;29046;54.184;18.680;2023-01-04T12:51:20;33.65;;;15.07;;
43457;SDS011;29046;54.184;18.680;2023-01-04T12:54:00;30.55;;;15.82;;
43457;SDS011;29046;54.184;18.680;2023-01-04T13:08:42;22.67;;;13.93;;
43457;SDS011;29046;54.184;18.680;2023-01-04T13:11:40;30.08;;;15.88;;
43457;SDS011;29046;54.184;18.680;2023-01-04T13:14:26;28.20;;;13.20;;
43457;SDS011;29046;54.184;18.680;2023-01-04T13:17:30;23.40;;;13.05;;
43457;SDS011;29046;54.184;18.680;2023-01-04T13:20:14;22.45;;;11.95;;
43457;SDS011;29046;54.184;18.680;2023-01-04T13:22:56;15.75;;;8.48;;
43457;SDS011;29046;54.184;18.680;2023-01-04T13:25:37;27.25;;;14.00;;
43457;SDS011;29046;54.184;18.680;2023-01-04T13:28:18;22.52;;;12.02;;
43457;SDS011;29046;54.184;18.680;2023-01-04T13:30:58;22.90;;;10.73;;
43457;SDS011;29046;54.184;18.680;2023-01-04T13:33:33;24.75;;;12.40;;
43457;SDS011;29046;54.184;18.680;2023-01-04T13:36:20;33.92;;;14.18;;
43457;SDS011;29046;54.184;18.680;2023-01-04T13:38:55;18.27;;;9.77;;
43457;SDS011;29046;54.184;18.680;2023-01-04T13:41:49;23.63;;;13.43;;
43457;SDS011;29046;54.184;18.680;2023-01-04T13:47:45;26.17;;;12.52;;
43457;SDS011;29046;54.184;18.680;2023-01-04T13:50:41;23.25;;;11.30;;
43457;SDS011;29046;54.184;18.680;2023-01-04T13:53:20;22.77;;;11.27;;
43457;SDS011;29046;54.184;18.680;2023-01-04T13:56:18;15.43;;;7.83;;
43457;SDS011;29046;54.184;18.680;2023-01-04T13:58:59;15.35;;;7.85;;
43457;SDS011;29046;54.184;18.680;2023-01-04T14:01:47;21.58;;;8.82;;
43457;SDS011;29046;54.184;18.680;2023-01-04T14:04:25;19.92;;;8.93;;
43457;SDS011;29046;54.184;18.680;2023-01-04T14:07:20;15.15;;;9.32;;
43457;SDS011;29046;54.184;18.680;2023-01-04T14:10:01;14.35;;;9.25;;
43457;SDS011;29046;54.184;18.680;2023-01-04T14:12:42;10.48;;;7.05;;
43457;SDS011;29046;54.184;18.680;2023-01-04T14:15:24;17.15;;;9.20;;
43457;SDS011;29046;54.184;18.680;2023-01-04T14:18:23;15.30;;;7.38;;
43457;SDS011;29046;54.184;18.680;2023-01-04T14:21:13;18.35;;;9.00;;
43457;SDS011;29046;54.184;18.680;2023-01-04T14:24:01;14.15;;;8.07;;
43457;SDS011;29046;54.184;18.680;2023-01-04T14:26:36;13.32;;;8.57;;
43457;SDS011;29046;54.184;18.680;2023-01-04T14:29:29;18.55;;;7.78;;
43457;SDS011;29046;54.184;18.680;2023-01-04T14:32:06;11.30;;;7.18;;
43457;SDS011;29046;54.184;18.680;2023-01-04T14:34:53;10.55;;;7.15;;
43457;SDS011;29046;54.184;18.680;2023-01-04T14:37:27;12.63;;;8.02;;
43457;SDS011;29046;54.184;18.680;2023-01-04T14:40:21;11.55;;;7.10;;
43457;SDS011;29046;54.184;18.680;2023-01-04T14:42:56;16.05;;;8.98;;
43457;SDS011;29046;54.184;18.680;2023-01-04T14:45:43;12.95;;;7.35;;
43457;SDS011;29046;54.184;18.680;2023-01-04T14:48:17;8.60;;;5.55;;
43457;SDS011;29046;54.184;18.680;2023-01-04T14:51:04;11.90;;;7.13;;
43457;SDS011;29046;54.184;18.680;2023-01-04T14:53:39;10.27;;;6.53;;
43457;SDS011;29046;54.184;18.680;2023-01-04T14:56:26;11.63;;;6.45;;
43457;SDS011;29046;54.184;18.680;2023-01-04T14:59:00;19.20;;;9.85;;
43457;SDS011;29046;54.184;18.680;2023-01-04T15:01:47;18.50;;;6.95;;
43457;SDS011;29046;54.184;18.680;2023-01-04T15:04:22;15.65;;;8.40;;
43457;SDS011;29046;54.184;18.680;2023-01-04T15:10:23;11.57;;;6.57;;
43457;SDS011;29046;54.184;18.680;2023-01-04T15:13:17;12.07;;;6.78;;
43457;SDS011;29046;54.184;18.680;2023-01-04T15:16:17;9.85;;;5.65;;
43457;SDS011;29046;54.184;18.680;2023-01-04T15:18:52;11.93;;;6.10;;
43457;SDS011;29046;54.184;18.680;2023-01-04T15:21:39;12.10;;;6.35;;
43457;SDS011;29046;54.184;18.680;2023-01-04T15:24:13;10.00;;;6.22;;
43457;SDS011;29046;54.184;18.680;2023-01-04T15:27:00;9.10;;;5.22;;
43457;SDS011;29046;54.184;18.680;2023-01-04T15:29:42;10.15;;;5.97;;
43457;SDS011;29046;54.184;18.680;2023-01-04T15:32:22;9.45;;;6.30;;
43457;SDS011;29046;54.184;18.680;2023-01-04T15:35:03;6.35;;;3.92;;
43457;SDS011;29046;54.184;18.680;2023-01-04T15:37:54;7.93;;;4.90;;
43457;SDS011;29046;54.184;18.680;2023-01-04T15:40:29;6.43;;;4.25;;
43457;SDS011;29046;54.184;18.680;2023-01-04T15:43:16;9.85;;;4.32;;
43457;SDS011;29046;54.184;18.680;2023-01-04T15:45:51;6.22;;;4.15;;
43457;SDS011;29046;54.184;18.680;2023-01-04T15:48:38;7.40;;;4.35;;
43457;SDS011;29046;54.184;18.680;2023-01-04T15:51:19;7.78;;;4.47;;
43457;SDS011;29046;54.184;18.680;2023-01-04T15:54:06;8.25;;;3.40;;
43457;SDS011;29046;54.184;18.680;2023-01-04T15:56:41;6.22;;;3.72;;
43457;SDS011;29046;54.184;18.680;2023-01-04T15:59:28;4.75;;;3.05;;
43457;SDS011;29046;54.184;18.680;2023-01-04T16:02:03;5.85;;;3.47;;
43457;SDS011;29046;54.184;18.680;2023-01-04T16:04:50;6.22;;;4.18;;
43457;SDS011;29046;54.184;18.680;2023-01-04T16:07:31;7.95;;;4.05;;
43457;SDS011;29046;54.184;18.680;2023-01-04T16:10:18;5.10;;;3.60;;
43457;SDS011;29046;54.184;18.680;2023-01-04T16:13:00;6.60;;;3.75;;
43457;SDS011;29046;54.184;18.680;2023-01-04T16:15:40;8.88;;;4.03;;
43457;SDS011;29046;54.184;18.680;2023-01-04T16:18:21;4.72;;;3.13;;
43457;SDS011;29046;54.184;18.680;2023-01-04T16:21:11;8.15;;;4.63;;
43457;SDS011;29046;54.184;18.680;2023-01-04T16:23:50;5.63;;;3.90;;
43457;SDS011;29046;54.184;18.680;2023-01-04T16:26:55;6.85;;;3.88;;
43457;SDS011;29046;54.184;18.680;2023-01-04T16:29:29;6.07;;;3.92;;
43457;SDS011;29046;54.184;18.680;2023-01-04T16:32:16;5.60;;;3.40;;
43457;SDS011;29046;54.184;18.680;2023-01-04T16:34:51;7.25;;;4.15;;
43457;SDS011;29046;54.184;18.680;2023-01-04T16:37:45;7.10;;;3.95;;
43457;SDS011;29046;54.184;18.680;2023-01-04T16:40:39;8.10;;;4.57;;
43457;SDS011;29046;54.184;18.680;2023-01-04T16:43:13;6.07;;;3.42;;
43457;SDS011;29046;54.184;18.680;2023-01-04T16:49:11;8.38;;;3.65;;
43457;SDS011;29046;54.184;18.680;2023-01-04T16:51:53;6.82;;;3.70;;
43457;SDS011;29046;54.184;18.680;2023-01-04T16:54:33;6.82;;;4.20;;
43457;SDS011;29046;54.184;18.680;2023-01-04T16:57:14;6.15;;;3.58;;
43457;SDS011;29046;54.184;18.680;2023-01-04T16:59:55;7.47;;;4.07;;
43457;SDS011;29046;54.184;18.680;2023-01-04T17:02:36;7.72;;;3.35;;
43457;SDS011;29046;54.184;18.680;2023-01-04T17:05:16;5.70;;;3.63;;
43457;SDS011;29046;54.184;18.680;2023-01-04T17:07:57;5.57;;;3.05;;
43457;SDS011;29046;54.184;18.680;2023-01-04T17:10:37;4.22;;;3.00;;
43457;SDS011;29046;54.184;18.680;2023-01-04T17:13:18;4.22;;;2.90;;
43457;SDS011;29046;54.184;18.680;2023-01-04T17:16:06;5.72;;;3.28;;
43457;SDS011;29046;54.184;18.680;2023-01-04T17:18:53;5.80;;;3.10;;
43457;SDS011;29046;54.184;18.680;2023-01-04T17:21:48;5.13;;;3.20;;
43457;SDS011;29046;54.184;18.680;2023-01-04T17:24:23;8.18;;;3.13;;
43457;SDS011;29046;54.184;18.680;2023-01-04T17:27:10;13.25;;;3.45;;
43457;SDS011;29046;54.184;18.680;2023-01-04T17:29:51;5.03;;;3.00;;
43457;SDS011;29046;54.184;18.680;2023-01-04T17:32:31;5.82;;;3.38;;
43457;SDS011;29046;54.184;18.680;2023-01-04T17:35:12;4.38;;;3.03;;
43457;SDS011;29046;54.184;18.680;2023-01-04T17:37:52;6.28;;;3.83;;
43457;SDS011;29046;54.184;18.680;2023-01-04T17:40:34;6.20;;;3.75;;
43457;SDS011;29046;54.184;18.680;2023-01-04T17:43:21;2.88;;;2.05;;
43457;SDS011;29046;54.184;18.680;2023-01-04T17:45:59;5.85;;;2.72;;
43457;SDS011;29046;54.184;18.680;2023-01-04T17:48:54;3.88;;;2.55;;
43457;SDS011;29046;54.184;18.680;2023-01-04T17:51:55;3.85;;;2.78;;
43457;SDS011;29046;54.184;18.680;2023-01-04T17:54:35;5.07;;;3.00;;
43457;SDS011;29046;54.184;18.680;2023-01-04T17:57:16;5.47;;;2.45;;
43457;SDS011;29046;54.184;18.680;2023-01-04T17:59:56;5.82;;;2.88;;
43457;SDS011;29046;54.184;18.680;2023-01-04T18:02:31;3.50;;;2.63;;
43457;SDS011;29046;54.184;18.680;2023-01-04T18:05:26;4.57;;;2.65;;
43457;SDS011;29046;54.184;18.680;2023-01-04T18:08:18;3.97;;;2.03;;
43457;SDS011;29046;54.184;18.680;2023-01-04T18:11:06;4.93;;;2.33;;
43457;SDS011;29046;54.184;18.680;2023-01-04T18:13:41;5.72;;;2.50;;
43457;SDS011;29046;54.184;18.680;2023-01-04T18:16:29;5.25;;;2.30;;
43457;SDS011;29046;54.184;18.680;2023-01-04T18:19:04;13.55;;;2.72;;
43457;SDS011;29046;54.184;18.680;2023-01-04T18:21:51;3.72;;;2.40;;
43457;SDS011;29046;54.184;18.680;2023-01-04T18:24:25;2.47;;;1.58;;
43457;SDS011;29046;54.184;18.680;2023-01-04T18:27:17;3.55;;;1.77;;
43457;SDS011;29046;54.184;18.680;2023-01-04T18:29:59;3.92;;;2.15;;
43457;SDS011;29046;54.184;18.680;2023-01-04T18:32:47;3.53;;;1.88;;
43457;SDS011;29046;54.184;18.680;2023-01-04T18:35:29;5.13;;;2.00;;
43457;SDS011;29046;54.184;18.680;2023-01-04T18:38:16;6.85;;;1.80;;
43457;SDS011;29046;54.184;18.680;2023-01-04T18:40:51;3.25;;;1.42;;
43457;SDS011;29046;54.184;18.680;2023-01-04T18:43:38;3.22;;;1.85;;
43457;SDS011;29046;54.184;18.680;2023-01-04T18:46:39;1.92;;;1.33;;
43457;SDS011;29046;54.184;18.680;2023-01-04T18:49:19;4.80;;;2.13;;
43457;SDS011;29046;54.184;18.680;2023-01-04T18:52:00;2.42;;;1.60;;
43457;SDS011;29046;54.184;18.680;2023-01-04T18:54:47;4.18;;;2.00;;
43457;SDS011;29046;54.184;18.680;2023-01-04T18:57:21;4.38;;;2.20;;
43457;SDS011;29046;54.184;18.680;2023-01-04T19:00:09;2.72;;;1.77;;
43457;SDS011;29046;54.184;18.680;2023-01-04T19:02:43;5.25;;;2.65;;
43457;SDS011;29046;54.184;18.680;2023-01-04T19:05:30;3.63;;;1.65;;
43457;SDS011;29046;54.184;18.680;2023-01-04T19:08:05;2.95;;;1.15;;
43457;SDS011;29046;54.184;18.680;2023-01-04T19:10:59;3.70;;;1.75;;
43457;SDS011;29046;54.184;18.680;2023-01-04T19:13:53;5.53;;;2.28;;
43457;SDS011;29046;54.184;18.680;2023-01-04T19:16:27;3.95;;;2.35;;
43457;SDS011;29046;54.184;18.680;2023-01-04T19:19:21;2.78;;;1.90;;
43457;SDS011;29046;54.184;18.680;2023-01-04T19:22:15;2.25;;;1.77;;
43457;SDS011;29046;54.184;18.680;2023-01-04T19:24:49;4.70;;;2.28;;
43457;SDS011;29046;54.184;18.680;2023-01-04T19:27:43;3.88;;;2.05;;
43457;SDS011;29046;54.184;18.680;2023-01-04T19:30:18;7.38;;;2.80;;
43457;SDS011;29046;54.184;18.680;2023-01-04T19:33:05;5.53;;;2.63;;
43457;SDS011;29046;54.184;18.680;2023-01-04T19:35:43;4.10;;;2.10;;
43457;SDS011;29046;54.184;18.680;2023-01-04T19:38:30;4.00;;;2.20;;
43457;SDS011;29046;54.184;18.680;2023-01-04T19:41:14;3.22;;;2.70;;
43457;SDS011;29046;54.184;18.680;2023-01-04T19:44:07;6.28;;;2.70;;
43457;SDS011;29046;54.184;18.680;2023-01-04T19:46:41;3.97;;;2.28;;
43457;SDS011;29046;54.184;18.680;2023-01-04T19:49:28;2.75;;;1.73;;
43457;SDS011;29046;54.184;18.680;2023-01-04T19:52:03;1.67;;;1.27;;
43457;SDS011;29046;54.184;18.680;2023-01-04T19:54:50;3.47;;;2.50;;
43457;SDS011;29046;54.184;18.680;2023-01-04T19:57:25;5.80;;;2.90;;
43457;SDS011;29046;54.184;18.680;2023-01-04T20:00:12;4.47;;;2.47;;
43457;SDS011;29046;54.184;18.680;2023-01-04T20:02:47;4.75;;;2.25;;
43457;SDS011;29046;54.184;18.680;2023-01-04T20:05:21;5.60;;;2.70;;
43457;SDS011;29046;54.184;18.680;2023-01-04T20:08:08;4.43;;;2.22;;
43457;SDS011;29046;54.184;18.680;2023-01-04T20:10:42;9.98;;;3.03;;
43457;SDS011;29046;54.184;18.680;2023-01-04T20:13:31;3.75;;;2.38;;
43457;SDS011;29046;54.184;18.680;2023-01-04T20:16:11;6.05;;;2.80;;
43457;SDS011;29046;54.184;18.680;2023-01-04T20:18:53;6.40;;;2.50;;
43457;SDS011;29046;54.184;18.680;2023-01-04T20:21:33;5.20;;;2.35;;
43457;SDS011;29046;54.184;18.680;2023-01-04T20:24:21;7.38;;;3.10;;
43457;SDS011;29046;54.184;18.680;2023-01-04T20:26:55;6.68;;;3.42;;
43457;SDS011;29046;54.184;18.680;2023-01-04T20:29:43;4.25;;;2.65;;
43457;SDS011;29046;54.184;18.680;2023-01-04T20:32:17;5.50;;;2.45;;
43457;SDS011;29046;54.184;18.680;2023-01-04T20:35:05;11.30;;;3.15;;
43457;SDS011;29046;54.184;18.680;2023-01-04T20:37:46;4.20;;;1.95;;
43457;SDS011;29046;54.184;18.680;2023-01-04T20:40:29;4.82;;;2.80;;
43457;SDS011;29046;54.184;18.680;2023-01-04T20:43:09;3.35;;;1.83;;
43457;SDS011;29046;54.184;18.680;2023-01-04T20:46:23;9.30;;;3.70;;
43457;SDS011;29046;54.184;18.680;2023-01-04T20:49:23;3.83;;;2.38;;
43457;SDS011;29046;54.184;18.680;2023-01-04T20:52:04;4.85;;;2.10;;
43457;SDS011;29046;54.184;18.680;2023-01-04T20:54:51;4.70;;;2.95;;
43457;SDS011;29046;54.184;18.680;2023-01-04T20:57:26;5.13;;;3.03;;
43457;SDS011;29046;54.184;18.680;2023-01-04T21:00:13;4.13;;;2.45;;
43457;SDS011;29046;54.184;18.680;2023-01-04T21:02:48;3.28;;;2.08;;
43457;SDS011;29046;54.184;18.680;2023-01-04T21:05:36;4.38;;;2.65;;
43457;SDS011;29046;54.184;18.680;2023-01-04T21:08:10;5.05;;;2.30;;
43457;SDS011;29046;54.184;18.680;2023-01-04T21:10:58;3.92;;;2.33;;
43457;SDS011;29046;54.184;18.680;2023-01-04T21:13:33;3.75;;;2.00;;
43457;SDS011;29046;54.184;18.680;2023-01-04T21:16:21;5.50;;;3.10;;
43457;SDS011;29046;54.184;18.680;2023-01-04T21:19:02;3.20;;;2.25;;
43457;SDS011;29046;54.184;18.680;2023-01-04T21:21:42;6.43;;;3.42;;
43457;SDS011;29046;54.184;18.680;2023-01-04T21:24:23;6.55;;;2.80;;
43457;SDS011;29046;54.184;18.680;2023-01-04T21:27:10;7.82;;;3.35;;
43457;SDS011;29046;54.184;18.680;2023-01-04T21:29:45;5.10;;;2.40;;
43457;SDS011;29046;54.184;18.680;2023-01-04T21:32:32;1.15;;;0.75;;
43457;SDS011;29046;54.184;18.680;2023-01-04T21:35:13;2.15;;;1.45;;
43457;SDS011;29046;54.184;18.680;2023-01-04T21:38:00;3.92;;;2.22;;
43457;SDS011;29046;54.184;18.680;2023-01-04T21:40:42;4.25;;;3.05;;
43457;SDS011;29046;54.184;18.680;2023-01-04T21:43:22;2.97;;;2.00;;
43457;SDS011;29046;54.184;18.680;2023-01-04T21:46:04;5.35;;;1.98;;
43457;SDS011;29046;54.184;18.680;2023-01-04T21:48:52;3.92;;;1.52;;
43457;SDS011;29046;54.184;18.680;2023-01-04T21:51:34;3.30;;;1.67;;
43457;SDS011;29046;54.184;18.680;2023-01-04T21:54:14;3.50;;;2.10;;
43457;SDS011;29046;54.184;18.680;2023-01-04T21:56:55;3.05;;;1.58;;
43457;SDS011;29046;54.184;18.680;2023-01-04T21:59:35;4.25;;;1.50;;
43457;SDS011;29046;54.184;18.680;2023-01-04T22:02:17;1.67;;;1.08;;
43457;SDS011;29046;54.184;18.680;2023-01-04T22:05:05;2.83;;;1.33;;
43457;SDS011;29046;54.184;18.680;2023-01-04T22:07:47;1.55;;;1.15;;
43457;SDS011;29046;54.184;18.680;2023-01-04T22:10:34;3.30;;;1.35;;
43457;SDS011;29046;54.184;18.680;2023-01-04T22:13:09;1.75;;;1.17;;
43457;SDS011;29046;54.184;18.680;2023-01-04T22:15:56;2.95;;;1.48;;
43457;SDS011;29046;54.184;18.680;2023-01-04T22:18:31;1.90;;;1.42;;
43457;SDS011;29046;54.184;18.680;2023-01-04T22:21:19;5.47;;;2.67;;
43457;SDS011;29046;54.184;18.680;2023-01-04T22:23:56;2.10;;;1.25;;
43457;SDS011;29046;54.184;18.680;2023-01-04T22:26:43;3.25;;;1.67;;
43457;SDS011;29046;54.184;18.680;2023-01-04T22:29:19;4.55;;;2.00;;
43457;SDS011;29046;54.184;18.680;2023-01-04T22:32:06;3.58;;;2.13;;
43457;SDS011;29046;54.184;18.680;2023-01-04T22:34:41;2.85;;;1.25;;
43457;SDS011;29046;54.184;18.680;2023-01-04T22:37:28;3.63;;;1.27;;
43457;SDS011;29046;54.184;18.680;2023-01-04T22:40:03;1.75;;;1.02;;
43457;SDS011;29046;54.184;18.680;2023-01-04T22:42:51;2.92;;;0.95;;
43457;SDS011;29046;54.184;18.680;2023-01-04T22:45:26;1.52;;;0.98;;
43457;SDS011;29046;54.184;18.680;2023-01-04T22:48:13;2.90;;;1.02;;
43457;SDS011;29046;54.184;18.680;2023-01-04T22:50:48;1.80;;;1.13;;
43457;SDS011;29046;54.184;18.680;2023-01-04T22:53:35;2.00;;;1.13;;
43457;SDS011;29046;54.184;18.680;2023-01-04T22:56:11;0.80;;;0.63;;
43457;SDS011;29046;54.184;18.680;2023-01-04T22:59:02;4.25;;;0.82;;
43457;SDS011;29046;54.184;18.680;2023-01-04T23:01:37;2.67;;;1.38;;
43457;SDS011;29046;54.184;18.680;2023-01-04T23:04:24;3.47;;;1.50;;
43457;SDS011;29046;54.184;18.680;2023-01-04T23:07:05;5.68;;;1.38;;
43457;SDS011;29046;54.184;18.680;2023-01-04T23:09:52;1.27;;;0.93;;
43457;SDS011;29046;54.184;18.680;2023-01-04T23:12:28;1.63;;;1.30;;
43457;SDS011;29046;54.184;18.680;2023-01-04T23:15:15;1.85;;;1.02;;
43457;SDS011;29046;54.184;18.680;2023-01-04T23:17:50;3.08;;;1.25;;
43457;SDS011;29046;54.184;18.680;2023-01-04T23:20:37;1.85;;;1.20;;
43457;SDS011;29046;54.184;18.680;2023-01-04T23:23:11;5.30;;;1.92;;
43457;SDS011;29046;54.184;18.680;2023-01-04T23:26:04;3.17;;;1.70;;
43457;SDS011;29046;54.184;18.680;2023-01-04T23:28:41;6.05;;;2.45;;
43457;SDS011;29046;54.184;18.680;2023-01-04T23:31:35;2.95;;;1.48;;
43457;SDS011;29046;54.184;18.680;2023-01-04T23:34:30;5.05;;;1.20;;
43457;SDS011;29046;54.184;18.680;2023-01-04T23:37:04;4.15;;;1.00;;
43457;SDS011;29046;54.184;18.680;2023-01-04T23:39:58;1.45;;;1.02;;
43457;SDS011;29046;54.184;18.680;2023-01-04T23:42:52;1.63;;;1.00;;
43457;SDS011;29046;54.184;18.680;2023-01-04T23:45:29;2.47;;;1.08;;
43457;SDS011;29046;54.184;18.680;2023-01-04T23:48:16;1.70;;;0.85;;
43457;SDS011;29046;54.184;18.680;2023-01-04T23:50:56;1.52;;;0.98;;
43457;SDS011;29046;54.184;18.680;2023-01-04T23:53:43;0.73;;;0.70;;
43457;SDS011;29046;54.184;18.680;2023-01-04T23:56:24;0.52;;;0.52;;
43457;SDS011;29046;54.184;18.680;2023-01-04T23:59:04;2.03;;;1.60;;
